createdAt,value
2023-04-17T00:00:48.116Z,101147.69
2023-04-17T00:03:17.108Z,101146.53
2023-04-17T00:05:46.336Z,101156.22
2023-04-17T00:08:13.407Z,101145.47
2023-04-17T00:10:40.468Z,101150.91
2023-04-17T00:13:07.457Z,101154.28
2023-04-17T00:15:34.499Z,101148.31
2023-04-17T00:18:01.618Z,101150.91
2023-04-17T00:20:28.667Z,101141.13
2023-04-17T00:22:55.819Z,101144.84
2023-04-17T00:25:22.972Z,101144.72
2023-04-17T00:27:50.826Z,101142.78
2023-04-17T00:30:18.011Z,101148.63
2023-04-17T00:32:45.137Z,101106.75
2023-04-17T00:35:12.577Z,101146.41
2023-04-17T00:37:39.970Z,101143.94
2023-04-17T00:40:07.561Z,101143.66
2023-04-17T00:42:34.829Z,101146.19
2023-04-17T00:45:01.987Z,101145.16
2023-04-17T00:47:33.120Z,101151.38
2023-04-17T00:50:00.363Z,101145.25
2023-04-17T00:52:31.038Z,101130.09
2023-04-17T00:55:00.242Z,101150.25
2023-04-17T00:57:27.850Z,101144.66
2023-04-17T00:59:57.844Z,101143.72
2023-04-17T01:02:25.730Z,101139.25
2023-04-17T01:04:52.869Z,101144.22
2023-04-17T01:07:19.964Z,101144.81
2023-04-17T01:09:47.518Z,101143.00
2023-04-17T01:12:24.783Z,101126.31
2023-04-17T01:14:53.631Z,101137.88
2023-04-17T01:17:21.549Z,101084.75
2023-04-17T01:19:52.432Z,101140.50
2023-04-17T01:22:22.735Z,101144.56
2023-04-17T01:24:55.113Z,101078.13
2023-04-17T01:27:23.630Z,101140.16
2023-04-17T01:29:51.067Z,101152.19
2023-04-17T01:32:19.233Z,101109.66
2023-04-17T01:34:46.283Z,101146.63
2023-04-17T01:37:13.379Z,101132.47
2023-04-17T01:39:41.086Z,101150.88
2023-04-17T01:42:08.152Z,101140.63
2023-04-17T01:44:37.573Z,101139.72
2023-04-17T01:47:04.738Z,101124.69
2023-04-17T01:49:31.973Z,101141.44
2023-04-17T01:51:59.009Z,101148.22
2023-04-17T01:54:26.181Z,101141.06
2023-04-17T01:56:53.407Z,101114.59
2023-04-17T01:59:21.914Z,101147.09
2023-04-17T02:01:53.089Z,101140.00
2023-04-17T02:04:20.501Z,101149.38
2023-04-17T02:06:47.627Z,101138.19
2023-04-17T02:09:17.043Z,101130.34
2023-04-17T02:11:44.038Z,101147.84
2023-04-17T02:14:11.882Z,101132.53
2023-04-17T02:16:40.096Z,101129.72
2023-04-17T02:19:07.014Z,101135.91
2023-04-17T02:21:33.985Z,101144.19
2023-04-17T02:24:01.041Z,101145.19
2023-04-17T02:26:29.131Z,101147.78
2023-04-17T02:28:56.245Z,101150.44
2023-04-17T02:31:24.347Z,101149.63
2023-04-17T02:33:51.503Z,101146.78
2023-04-17T02:36:18.591Z,101147.66
2023-04-17T02:38:46.288Z,101139.94
2023-04-17T02:41:13.888Z,101143.47
2023-04-17T02:43:41.308Z,101123.16
2023-04-17T02:46:10.602Z,101081.38
2023-04-17T02:48:37.663Z,101120.59
2023-04-17T02:51:04.893Z,101123.56
2023-04-17T02:53:31.950Z,101135.38
2023-04-17T02:55:58.995Z,101136.38
2023-04-17T02:58:26.533Z,101127.53
2023-04-17T03:01:01.151Z,101119.81
2023-04-17T03:03:35.143Z,101136.75
2023-04-17T03:06:05.904Z,101132.38
2023-04-17T03:08:35.682Z,101137.13
2023-04-17T03:11:03.571Z,101142.53
2023-04-17T03:13:31.511Z,101148.19
2023-04-17T03:15:59.163Z,101097.75
2023-04-17T03:18:26.630Z,101145.44
2023-04-17T03:20:54.262Z,101140.94
2023-04-17T03:23:21.522Z,101134.16
2023-04-17T03:25:49.091Z,101133.06
2023-04-17T03:28:16.989Z,101143.69
2023-04-17T03:30:44.623Z,101155.16
2023-04-17T03:33:11.676Z,101095.34
2023-04-17T03:35:38.815Z,101166.75
2023-04-17T03:38:09.098Z,101144.97
2023-04-17T03:40:36.238Z,101157.09
2023-04-17T03:43:03.291Z,101153.63
2023-04-17T03:45:31.921Z,101147.16
2023-04-17T03:47:59.071Z,101147.56
2023-04-17T03:50:26.234Z,101161.81
2023-04-17T03:52:57.485Z,101176.91
2023-04-17T03:55:26.895Z,101160.53
2023-04-17T03:57:54.884Z,101176.06
2023-04-17T04:00:23.521Z,101177.13
2023-04-17T04:02:55.791Z,101162.25
2023-04-17T04:05:27.767Z,101169.94
2023-04-17T04:07:56.270Z,101166.78
2023-04-17T04:10:30.058Z,101164.47
2023-04-17T04:12:57.505Z,101166.00
2023-04-17T04:15:25.822Z,101166.44
2023-04-17T04:17:56.882Z,101157.53
2023-04-17T04:20:24.030Z,101166.66
2023-04-17T04:22:59.476Z,101164.94
2023-04-17T04:25:28.917Z,101161.19
2023-04-17T04:28:15.804Z,101167.69
2023-04-17T04:30:50.926Z,101166.38
2023-04-17T04:33:20.633Z,101175.66
2023-04-17T04:35:48.748Z,101149.19
2023-04-17T04:38:17.332Z,101175.19
2023-04-17T04:40:50.277Z,101146.38
2023-04-17T04:43:20.126Z,101159.00
2023-04-17T04:45:50.240Z,101181.03
2023-04-17T04:48:17.704Z,101178.56
2023-04-17T04:50:45.668Z,101174.44
2023-04-17T04:53:12.927Z,101179.09
2023-04-17T04:55:46.290Z,101165.09
2023-04-17T04:58:14.247Z,101181.16
2023-04-17T05:00:44.499Z,101186.56
2023-04-17T05:03:17.483Z,101149.72
2023-04-17T05:05:46.227Z,101184.38
2023-04-17T05:08:15.361Z,101143.00
2023-04-17T05:10:47.513Z,101180.19
2023-04-17T05:13:14.869Z,101126.38
2023-04-17T05:15:42.763Z,101171.53
2023-04-17T05:18:10.567Z,101185.81
2023-04-17T05:20:39.802Z,101170.88
2023-04-17T05:23:06.846Z,101125.22
2023-04-17T05:25:34.004Z,101183.69
2023-04-17T05:28:06.792Z,101174.25
2023-04-17T05:30:34.123Z,101183.94
2023-04-17T05:33:12.606Z,101178.81
2023-04-17T05:35:47.685Z,101183.22
2023-04-17T05:38:14.945Z,101177.19
2023-04-17T05:40:42.058Z,101172.81
2023-04-17T05:43:10.768Z,101171.06
2023-04-17T05:45:41.567Z,101180.50
2023-04-17T05:48:10.983Z,101183.41
2023-04-17T05:50:38.106Z,101181.72
2023-04-17T05:53:06.749Z,101161.38
2023-04-17T05:55:39.820Z,101164.31
2023-04-17T05:58:23.094Z,101177.97
2023-04-17T06:00:52.926Z,101118.06
2023-04-17T06:03:21.286Z,101159.31
2023-04-17T06:05:53.989Z,101170.44
2023-04-17T06:08:21.724Z,101164.66
2023-04-17T06:10:50.277Z,101164.94
2023-04-17T06:13:17.533Z,101163.13
2023-04-17T06:15:47.310Z,101167.53
2023-04-17T06:18:16.238Z,101170.88
2023-04-17T06:20:44.600Z,101156.78
2023-04-17T06:23:11.655Z,101173.31
2023-04-17T06:25:38.790Z,101163.75
2023-04-17T06:28:06.021Z,101177.06
2023-04-17T06:30:33.050Z,101177.97
2023-04-17T06:33:00.201Z,101159.38
2023-04-17T06:35:27.276Z,101174.44
2023-04-17T06:38:00.032Z,101177.00
2023-04-17T06:40:27.678Z,101123.97
2023-04-17T06:42:54.665Z,101180.28
2023-04-17T06:45:23.610Z,101188.88
2023-04-17T06:47:50.710Z,101186.91
2023-04-17T06:50:18.457Z,101178.91
2023-04-17T06:52:45.832Z,101181.59
2023-04-17T06:55:13.073Z,101190.53
2023-04-17T06:57:40.190Z,101193.25
2023-04-17T07:00:08.142Z,101188.09
2023-04-17T07:02:36.372Z,101193.50
2023-04-17T07:05:06.986Z,101205.13
2023-04-17T07:07:34.692Z,101190.50
2023-04-17T07:10:02.622Z,101196.91
2023-04-17T07:12:31.185Z,101193.53
2023-04-17T07:14:58.205Z,101193.84
2023-04-17T07:17:27.148Z,101196.78
2023-04-17T07:19:54.236Z,101195.34
2023-04-17T07:22:21.723Z,101185.97
2023-04-17T07:24:48.828Z,101186.22
2023-04-17T07:27:15.961Z,101192.91
2023-04-17T07:29:43.116Z,101140.53
2023-04-17T07:32:11.029Z,101189.44
2023-04-17T07:34:41.366Z,101188.06
2023-04-17T07:37:08.483Z,101186.41
2023-04-17T07:39:35.746Z,101184.06
2023-04-17T07:42:06.527Z,101172.03
2023-04-17T07:44:33.727Z,101190.72
2023-04-17T07:47:01.469Z,101187.56
2023-04-17T07:49:28.687Z,101166.75
2023-04-17T07:51:56.161Z,101185.44
2023-04-17T07:54:23.219Z,101177.56
2023-04-17T07:56:50.873Z,101193.38
2023-04-17T07:59:18.133Z,101178.47
2023-04-17T08:01:45.285Z,101182.56
2023-04-17T08:04:12.564Z,101181.03
2023-04-17T08:06:39.748Z,101182.34
2023-04-17T08:09:07.286Z,101180.03
2023-04-17T08:11:42.744Z,101173.50
2023-04-17T08:14:17.555Z,101150.78
2023-04-17T08:16:44.619Z,101169.69
2023-04-17T08:19:11.864Z,101170.66
2023-04-17T08:21:39.433Z,101158.41
2023-04-17T08:24:07.029Z,101174.31
2023-04-17T08:26:34.070Z,101172.69
2023-04-17T08:29:01.921Z,101160.31
2023-04-17T08:31:29.254Z,101169.81
2023-04-17T08:34:10.440Z,101155.50
2023-04-17T08:36:41.255Z,101149.28
2023-04-17T08:39:10.189Z,101169.25
2023-04-17T08:42:00.424Z,101172.22
2023-04-17T08:44:27.611Z,101155.75
2023-04-17T08:46:59.168Z,101104.22
2023-04-17T08:49:29.957Z,101158.19
2023-04-17T08:51:57.038Z,101147.25
2023-04-17T08:54:24.046Z,101096.94
2023-04-17T08:56:51.083Z,101128.81
2023-04-17T08:59:18.189Z,101149.09
2023-04-17T09:02:05.807Z,101146.06
2023-04-17T09:04:41.995Z,101153.88
2023-04-17T09:07:11.905Z,101149.75
2023-04-17T09:09:48.200Z,101149.44
2023-04-17T09:12:15.756Z,101151.06
2023-04-17T09:14:42.808Z,101142.97
2023-04-17T09:17:10.022Z,101141.94
2023-04-17T09:19:37.098Z,101150.06
2023-04-17T09:22:21.614Z,101141.97
2023-04-17T09:24:48.943Z,101155.66
2023-04-17T09:27:27.418Z,101138.13
2023-04-17T09:30:06.040Z,101151.63
2023-04-17T09:32:35.119Z,101144.31
2023-04-17T09:35:04.514Z,101154.31
2023-04-17T09:37:51.705Z,101154.91
2023-04-17T09:40:21.025Z,101125.28
2023-04-17T09:42:58.813Z,101139.81
2023-04-17T09:45:29.815Z,101130.22
2023-04-17T09:47:56.882Z,101139.97
2023-04-17T09:50:27.238Z,101121.03
2023-04-17T09:52:59.061Z,101122.19
2023-04-17T09:55:30.031Z,101123.38
2023-04-17T09:58:03.654Z,101141.31
2023-04-17T10:00:31.459Z,101130.50
2023-04-17T10:02:59.698Z,101131.84
2023-04-17T10:05:29.344Z,101139.19
2023-04-17T10:07:57.413Z,101105.13
2023-04-17T10:10:26.865Z,101129.84
2023-04-17T10:12:57.374Z,101127.28
2023-04-17T10:15:25.776Z,101137.91
2023-04-17T10:17:56.300Z,101125.72
2023-04-17T10:20:23.779Z,101122.28
2023-04-17T10:22:56.297Z,101134.56
2023-04-17T10:25:26.243Z,101131.94
2023-04-17T10:28:00.950Z,101137.19
2023-04-17T10:30:54.436Z,101132.78
2023-04-17T10:33:24.902Z,101101.16
2023-04-17T10:35:53.181Z,101116.94
2023-04-17T10:38:36.512Z,101132.78
2023-04-17T10:41:08.615Z,101128.38
2023-04-17T10:43:35.818Z,101106.34
2023-04-17T10:46:09.390Z,101111.63
2023-04-17T10:48:39.064Z,101123.00
2023-04-17T10:51:21.625Z,101138.75
2023-04-17T10:53:52.273Z,101128.22
2023-04-17T10:56:49.425Z,101112.38
2023-04-17T10:59:18.108Z,101132.53
2023-04-17T11:01:48.155Z,101126.34
2023-04-17T11:04:23.725Z,101126.31
2023-04-17T11:06:52.831Z,101118.38
2023-04-17T11:09:21.937Z,101121.03
2023-04-17T11:11:48.979Z,101110.44
2023-04-17T11:14:18.105Z,101108.66
2023-04-17T11:16:48.126Z,101120.97
2023-04-17T11:19:23.581Z,101102.56
2023-04-17T11:21:53.769Z,101106.94
2023-04-17T11:24:25.191Z,101104.38
2023-04-17T11:26:52.787Z,101100.84
2023-04-17T11:29:22.150Z,101095.56
2023-04-17T11:31:52.153Z,101106.97
2023-04-17T11:34:19.772Z,101105.19
2023-04-17T11:36:50.555Z,101101.69
2023-04-17T11:39:18.775Z,101084.13
2023-04-17T11:41:46.649Z,101084.19
2023-04-17T11:44:14.646Z,101082.41
2023-04-17T11:46:41.722Z,101093.84
2023-04-17T11:49:09.263Z,101064.91
2023-04-17T11:51:36.899Z,101075.47
2023-04-17T11:54:04.184Z,101069.34
2023-04-17T11:56:31.335Z,101081.69
2023-04-17T11:59:00.252Z,101089.63
2023-04-17T12:01:28.708Z,101008.94
2023-04-17T12:03:57.758Z,101072.13
2023-04-17T12:06:36.944Z,101070.41
2023-04-17T12:09:04.620Z,101082.72
2023-04-17T12:11:35.980Z,101083.66
2023-04-17T12:14:05.560Z,101068.69
2023-04-17T12:16:32.725Z,101010.75
2023-04-17T12:18:59.954Z,101078.34
2023-04-17T12:21:27.041Z,101084.53
2023-04-17T12:23:54.303Z,101059.06
2023-04-17T12:26:21.895Z,101052.94
2023-04-17T12:28:48.952Z,101058.22
2023-04-17T12:31:16.000Z,101070.50
2023-04-17T12:33:43.138Z,101050.31
2023-04-17T12:36:10.223Z,101062.59
2023-04-17T12:38:37.336Z,101070.50
2023-04-17T12:41:04.512Z,101055.59
2023-04-17T12:43:33.245Z,101060.84
2023-04-17T12:46:00.462Z,101063.47
2023-04-17T12:48:27.492Z,101058.22
2023-04-17T12:50:54.702Z,101065.25
2023-04-17T12:53:21.776Z,101070.47
2023-04-17T12:55:48.928Z,101059.97
2023-04-17T12:58:16.270Z,101059.97
2023-04-17T13:00:46.178Z,101054.72
2023-04-17T13:03:13.574Z,101003.81
2023-04-17T13:05:40.858Z,101045.06
2023-04-17T13:08:12.527Z,101047.66
2023-04-17T13:10:39.544Z,101043.28
2023-04-17T13:13:06.618Z,101059.06
2023-04-17T13:15:33.914Z,101044.97
2023-04-17T13:18:01.066Z,101049.41
2023-04-17T13:20:28.954Z,100996.69
2023-04-17T13:22:57.792Z,101045.84
2023-04-17T13:25:25.952Z,101043.19
2023-04-17T13:27:55.239Z,101029.97
2023-04-17T13:30:23.010Z,101044.88
2023-04-17T13:32:50.271Z,101044.88
2023-04-17T13:35:17.694Z,101027.34
2023-04-17T13:37:44.833Z,101046.63
2023-04-17T13:40:12.151Z,101046.59
2023-04-17T13:42:39.396Z,101022.91
2023-04-17T13:45:07.768Z,101045.69
2023-04-17T13:47:35.064Z,101039.53
2023-04-17T13:50:02.165Z,101036.03
2023-04-17T13:52:31.798Z,101042.16
2023-04-17T13:54:58.764Z,101026.34
2023-04-17T13:57:25.809Z,101026.31
2023-04-17T13:59:52.882Z,101038.56
2023-04-17T14:02:20.139Z,101033.34
2023-04-17T14:04:47.421Z,101028.97
2023-04-17T14:07:15.557Z,101033.34
2023-04-17T14:09:42.839Z,101029.81
2023-04-17T14:12:10.151Z,101026.22
2023-04-17T14:14:37.273Z,101015.63
2023-04-17T14:17:04.356Z,101036.66
2023-04-17T14:19:32.069Z,101030.44
2023-04-17T14:21:59.155Z,101018.13
2023-04-17T14:24:26.244Z,101039.13
2023-04-17T14:26:53.287Z,101036.50
2023-04-17T14:29:21.327Z,101002.19
2023-04-17T14:31:48.597Z,101030.28
2023-04-17T14:34:15.969Z,101032.03
2023-04-17T14:36:43.678Z,101030.28
2023-04-17T14:39:11.321Z,101031.16
2023-04-17T14:41:38.689Z,101016.22
2023-04-17T14:44:05.830Z,101030.25
2023-04-17T14:46:33.176Z,101034.59
2023-04-17T14:49:00.366Z,101019.66
2023-04-17T14:51:28.441Z,101024.88
2023-04-17T14:53:55.526Z,100976.47
2023-04-17T14:56:22.663Z,101025.72
2023-04-17T14:58:49.859Z,101036.22
2023-04-17T15:01:17.014Z,101031.78
2023-04-17T15:03:46.760Z,101023.00
2023-04-17T15:06:16.476Z,101020.31
2023-04-17T15:08:43.586Z,101026.38
2023-04-17T15:11:10.724Z,101036.75
2023-04-17T15:13:40.169Z,100939.16
2023-04-17T15:16:09.810Z,101034.88
2023-04-17T15:18:39.468Z,101031.38
2023-04-17T15:21:06.998Z,101026.06
2023-04-17T15:23:34.864Z,101010.19
2023-04-17T15:26:02.250Z,101031.25
2023-04-17T15:28:29.504Z,101022.44
2023-04-17T15:30:57.020Z,101012.69
2023-04-17T15:33:24.120Z,101029.31
2023-04-17T15:35:56.077Z,100987.13
2023-04-17T15:38:23.339Z,101017.81
2023-04-17T15:40:50.769Z,101025.66
2023-04-17T15:43:18.341Z,101004.56
2023-04-17T15:45:47.791Z,101022.16
2023-04-17T15:48:15.918Z,101022.00
2023-04-17T15:50:43.048Z,101018.53
2023-04-17T15:53:10.236Z,101019.41
2023-04-17T15:55:38.565Z,101024.56
2023-04-17T15:58:05.784Z,101035.00
2023-04-17T16:00:34.159Z,101029.59
2023-04-17T16:03:01.435Z,101031.34
2023-04-17T16:05:30.417Z,101017.22
2023-04-17T16:07:57.763Z,101024.28
2023-04-17T16:10:25.179Z,101029.44
2023-04-17T16:12:52.161Z,101015.25
2023-04-17T16:15:19.191Z,101012.59
2023-04-17T16:17:48.757Z,101029.31
2023-04-17T16:20:16.475Z,101031.00
2023-04-17T16:22:43.721Z,101027.50
2023-04-17T16:25:12.338Z,100993.00
2023-04-17T16:27:40.470Z,101020.28
2023-04-17T16:30:09.154Z,101027.16
2023-04-17T16:32:36.319Z,101031.56
2023-04-17T16:35:03.372Z,101033.22
2023-04-17T16:37:30.656Z,101037.56
2023-04-17T16:39:57.807Z,101023.44
2023-04-17T16:42:24.821Z,101024.28
2023-04-17T16:44:52.107Z,101024.31
2023-04-17T16:47:19.153Z,101043.50
2023-04-17T16:49:46.133Z,101040.09
2023-04-17T16:52:13.145Z,101033.13
2023-04-17T16:54:40.324Z,101037.41
2023-04-17T16:57:07.370Z,101038.28
2023-04-17T16:59:34.499Z,100986.28
2023-04-17T17:02:02.615Z,100997.75
2023-04-17T17:04:30.640Z,101041.75
2023-04-17T17:06:57.902Z,101037.38
2023-04-17T17:09:26.013Z,101046.94
2023-04-17T17:11:53.292Z,101044.28
2023-04-17T17:14:20.460Z,101048.63
2023-04-17T17:16:47.674Z,101037.19
2023-04-17T17:19:15.405Z,101052.00
2023-04-17T17:21:42.908Z,101048.41
2023-04-17T17:24:10.054Z,101051.03
2023-04-17T17:26:37.376Z,101058.88
2023-04-17T17:29:04.925Z,101055.38
2023-04-17T17:31:33.986Z,101044.78
2023-04-17T17:34:11.882Z,101058.88
2023-04-17T17:36:49.729Z,101059.72
2023-04-17T17:39:16.918Z,101047.38
2023-04-17T17:41:45.967Z,101052.63
2023-04-17T17:44:15.011Z,101046.41
2023-04-17T17:46:42.332Z,101041.13
2023-04-17T17:49:09.790Z,101052.53
2023-04-17T17:51:36.914Z,101052.47
2023-04-17T17:54:04.037Z,101047.19
2023-04-17T17:56:31.236Z,101061.19
2023-04-17T17:58:58.328Z,101027.91
2023-04-17T18:01:25.654Z,101049.03
2023-04-17T18:03:53.574Z,101055.09
2023-04-17T18:06:21.417Z,101026.88
2023-04-17T18:08:48.548Z,101045.38
2023-04-17T18:11:15.766Z,101051.50
2023-04-17T18:13:42.782Z,101055.84
2023-04-17T18:16:10.170Z,101043.53
2023-04-17T18:18:37.278Z,101055.78
2023-04-17T18:21:08.026Z,101053.13
2023-04-17T18:23:35.783Z,101050.50
2023-04-17T18:26:04.291Z,101045.16
2023-04-17T18:28:32.593Z,101055.69
2023-04-17T18:30:59.759Z,101039.78
2023-04-17T18:33:26.926Z,101047.75
2023-04-17T18:35:53.928Z,101046.00
2023-04-17T18:38:20.982Z,101042.41
2023-04-17T18:40:48.201Z,101011.53
2023-04-17T18:43:15.532Z,101032.63
2023-04-17T18:45:42.624Z,101039.69
2023-04-17T18:48:09.590Z,101042.31
2023-04-17T18:50:38.593Z,101039.69
2023-04-17T18:53:05.758Z,100977.28
2023-04-17T18:55:33.295Z,101021.34
2023-04-17T18:58:00.309Z,101005.44
2023-04-17T19:00:27.382Z,101003.66
2023-04-17T19:02:54.559Z,101021.22
2023-04-17T19:05:22.077Z,101004.53
2023-04-17T19:07:49.370Z,101008.13
2023-04-17T19:10:16.498Z,101002.88
2023-04-17T19:12:44.325Z,101010.78
2023-04-17T19:15:11.730Z,101011.63
2023-04-17T19:17:39.138Z,101004.56
2023-04-17T19:20:07.001Z,101006.16
2023-04-17T19:22:34.021Z,101003.53
2023-04-17T19:25:01.049Z,100996.44
2023-04-17T19:27:29.069Z,101006.00
2023-04-17T19:29:57.071Z,101003.31
2023-04-17T19:32:24.139Z,101009.41
2023-04-17T19:34:51.250Z,100982.22
2023-04-17T19:37:18.296Z,100894.22
2023-04-17T19:39:45.376Z,100998.97
2023-04-17T19:42:12.356Z,101005.13
2023-04-17T19:44:39.372Z,100979.75
2023-04-17T19:47:06.489Z,100996.47
2023-04-17T19:49:33.545Z,100994.69
2023-04-17T19:52:01.115Z,100996.41
2023-04-17T19:54:28.429Z,100992.00
2023-04-17T19:56:55.697Z,100996.34
2023-04-17T19:59:23.331Z,100997.22
2023-04-17T20:01:51.194Z,101001.56
2023-04-17T20:04:18.661Z,100996.34
2023-04-17T20:06:46.179Z,100997.22
2023-04-17T20:09:14.796Z,100987.50
2023-04-17T20:11:43.067Z,100997.16
2023-04-17T20:14:11.292Z,100996.19
2023-04-17T20:16:38.588Z,100989.94
2023-04-17T20:19:05.787Z,100988.06
2023-04-17T20:21:32.911Z,100988.78
2023-04-17T20:23:59.966Z,100972.03
2023-04-17T20:26:27.090Z,100979.84
2023-04-17T20:28:56.821Z,100992.13
2023-04-17T20:31:23.961Z,100977.25
2023-04-17T20:33:51.046Z,100963.91
2023-04-17T20:36:18.134Z,100993.63
2023-04-17T20:38:45.405Z,100980.59
2023-04-17T20:41:12.904Z,100981.44
2023-04-17T20:43:40.046Z,100943.53
2023-04-17T20:46:08.133Z,100981.41
2023-04-17T20:48:35.241Z,100981.31
2023-04-17T20:51:05.986Z,100976.06
2023-04-17T20:53:33.349Z,100983.91
2023-04-17T20:56:00.469Z,100976.88
2023-04-17T20:58:27.683Z,100978.66
2023-04-17T21:01:01.131Z,100968.94
2023-04-17T21:03:31.203Z,100953.81
2023-04-17T21:05:58.705Z,100980.94
2023-04-17T21:08:26.276Z,100979.94
2023-04-17T21:10:53.240Z,100980.53
2023-04-17T21:13:21.050Z,100974.94
2023-04-17T21:15:48.190Z,100983.72
2023-04-17T21:18:15.515Z,100986.25
2023-04-17T21:20:42.553Z,100985.34
2023-04-17T21:23:09.571Z,100987.97
2023-04-17T21:25:36.778Z,100981.81
2023-04-17T21:28:03.984Z,100969.34
2023-04-17T21:30:31.089Z,100974.66
2023-04-17T21:32:58.147Z,100985.13
2023-04-17T21:35:25.281Z,100983.34
2023-04-17T21:37:52.268Z,100958.84
2023-04-17T21:40:19.391Z,100984.28
2023-04-17T21:42:47.081Z,100959.72
2023-04-17T21:45:14.646Z,100976.31
2023-04-17T21:47:41.736Z,100981.44
2023-04-17T21:50:09.632Z,100970.09
2023-04-17T21:52:36.810Z,100977.06
2023-04-17T21:55:05.738Z,100968.22
2023-04-17T21:57:33.235Z,100977.94
2023-04-17T22:00:01.735Z,100953.25
2023-04-17T22:02:32.273Z,100980.56
2023-04-17T22:04:59.501Z,100979.63
2023-04-17T22:07:26.775Z,100977.78
2023-04-17T22:09:53.814Z,100979.47
2023-04-17T22:12:20.993Z,100978.56
2023-04-17T22:14:48.902Z,100972.50
2023-04-17T22:17:16.177Z,100972.53
2023-04-17T22:19:43.244Z,100979.50
2023-04-17T22:22:10.230Z,100974.25
2023-04-17T22:24:37.325Z,100965.53
2023-04-17T22:27:04.301Z,100921.38
2023-04-17T22:29:31.402Z,100977.78
2023-04-17T22:31:58.455Z,100977.78
2023-04-17T22:34:25.477Z,100975.09
2023-04-17T22:36:52.558Z,100971.56
2023-04-17T22:39:19.592Z,100967.28
2023-04-17T22:41:46.619Z,100976.75
2023-04-17T22:44:13.852Z,100953.91
2023-04-17T22:46:41.259Z,100955.66
2023-04-17T22:49:08.430Z,100967.13
2023-04-17T22:51:35.559Z,100968.88
2023-04-17T22:54:18.948Z,100946.97
2023-04-17T22:56:46.683Z,100915.28
2023-04-17T22:59:13.769Z,100960.22
2023-04-17T23:01:40.993Z,100928.63
2023-04-17T23:04:09.388Z,100960.34
2023-04-17T23:06:36.412Z,100955.00
2023-04-17T23:09:04.959Z,100959.34
2023-04-17T23:11:33.085Z,100960.25
2023-04-17T23:14:01.496Z,100951.53
2023-04-17T23:16:29.591Z,100955.97
2023-04-17T23:18:56.776Z,100953.41
2023-04-17T23:21:24.548Z,100945.50
2023-04-17T23:23:55.729Z,100942.00
2023-04-17T23:26:23.567Z,100934.81
2023-04-17T23:28:50.617Z,100945.38
2023-04-17T23:31:17.662Z,100946.19
2023-04-17T23:33:44.652Z,100946.19
2023-04-17T23:36:13.321Z,100918.13
2023-04-17T23:38:40.354Z,100934.88
2023-04-17T23:41:07.451Z,100935.75
2023-04-17T23:43:34.510Z,100877.59
2023-04-17T23:46:01.617Z,100933.81
2023-04-17T23:48:28.694Z,100911.84
2023-04-17T23:50:55.880Z,100926.88
2023-04-17T23:53:22.988Z,100927.91
2023-04-17T23:55:50.006Z,100924.56
2023-04-17T23:58:16.999Z,100931.59
